createdAt,value
2024-01-16T00:01:44.230Z,1.87
2024-01-16T00:04:12.108Z,1.78
2024-01-16T00:06:45.092Z,1.88
2024-01-16T00:09:13.597Z,1.86
2024-01-16T00:11:44.525Z,1.84
2024-01-16T00:14:11.920Z,1.74
2024-01-16T00:16:46.567Z,1.76
2024-01-16T00:19:13.889Z,1.78
2024-01-16T00:21:42.355Z,1.86
2024-01-16T00:24:09.752Z,1.85
2024-01-16T00:26:37.355Z,1.75
2024-01-16T00:29:04.364Z,1.81
2024-01-16T00:31:31.679Z,1.69
2024-01-16T00:33:58.641Z,1.79
2024-01-16T00:36:25.659Z,1.68
2024-01-16T00:38:52.608Z,1.68
2024-01-16T00:41:20.810Z,1.61
2024-01-16T00:43:47.760Z,1.77
2024-01-16T00:46:14.951Z,1.78
2024-01-16T00:48:42.384Z,1.92
2024-01-16T00:51:09.328Z,1.85
2024-01-16T00:53:44.659Z,1.82
2024-01-16T00:56:13.688Z,2.14
2024-01-16T00:58:40.705Z,2.14
2024-01-16T01:01:07.621Z,1.95
2024-01-16T01:03:34.693Z,2.05
2024-01-16T01:06:02.205Z,1.78
2024-01-16T01:08:29.490Z,2.01
2024-01-16T01:10:56.857Z,1.92
2024-01-16T01:13:23.897Z,2.00
2024-01-16T01:15:50.898Z,2.04
2024-01-16T01:18:17.975Z,1.61
2024-01-16T01:20:45.030Z,1.32
2024-01-16T01:23:12.215Z,1.28
2024-01-16T01:25:39.655Z,1.39
2024-01-16T01:28:06.817Z,1.59
2024-01-16T01:30:33.928Z,1.52
2024-01-16T01:33:00.990Z,1.49
2024-01-16T01:35:28.560Z,1.59
2024-01-16T01:37:55.706Z,1.45
2024-01-16T01:40:22.671Z,1.58
2024-01-16T01:42:49.627Z,1.72
2024-01-16T01:45:16.723Z,1.92
2024-01-16T01:47:43.949Z,1.75
2024-01-16T01:50:17.665Z,1.93
2024-01-16T01:52:45.191Z,1.90
2024-01-16T01:55:14.732Z,2.04
2024-01-16T01:57:44.228Z,2.14
2024-01-16T02:00:12.193Z,2.14
2024-01-16T02:02:41.876Z,1.72
2024-01-16T02:05:09.254Z,1.64
2024-01-16T02:07:36.901Z,1.76
2024-01-16T02:10:06.467Z,1.68
2024-01-16T02:12:33.355Z,1.94
2024-01-16T02:15:00.212Z,2.02
2024-01-16T02:17:27.078Z,2.03
2024-01-16T02:19:54.931Z,2.05
2024-01-16T02:22:24.813Z,2.02
2024-01-16T02:24:52.164Z,2.15
2024-01-16T02:27:19.066Z,2.29
2024-01-16T02:29:47.774Z,2.24
2024-01-16T02:32:16.728Z,2.08
2024-01-16T02:34:44.610Z,2.25
2024-01-16T02:37:11.473Z,2.37
2024-01-16T02:39:38.299Z,2.34
2024-01-16T02:42:05.484Z,1.89
2024-01-16T02:44:32.793Z,2.05
2024-01-16T02:46:59.737Z,2.05
2024-01-16T02:49:27.380Z,1.52
2024-01-16T02:51:55.495Z,1.54
2024-01-16T02:54:23.683Z,1.92
2024-01-16T02:56:51.016Z,1.94
2024-01-16T02:59:18.406Z,1.94
2024-01-16T03:01:45.364Z,2.18
2024-01-16T03:04:12.668Z,2.13
2024-01-16T03:06:39.741Z,2.24
2024-01-16T03:09:07.656Z,2.09
2024-01-16T03:11:34.686Z,1.73
2024-01-16T03:14:02.793Z,1.71
2024-01-16T03:16:29.878Z,1.75
2024-01-16T03:18:57.233Z,2.03
2024-01-16T03:21:24.238Z,2.23
2024-01-16T03:23:51.556Z,2.28
2024-01-16T03:26:18.596Z,2.02
2024-01-16T03:28:46.324Z,2.12
2024-01-16T03:31:15.269Z,2.15
2024-01-16T03:33:43.888Z,2.05
2024-01-16T03:36:11.612Z,1.74
2024-01-16T03:38:38.512Z,1.90
2024-01-16T03:41:07.843Z,1.82
2024-01-16T03:43:37.940Z,1.96
2024-01-16T03:46:04.916Z,2.03
2024-01-16T03:48:31.937Z,2.06
2024-01-16T03:50:58.915Z,1.76
2024-01-16T03:53:25.856Z,1.75
2024-01-16T03:55:52.696Z,1.70
2024-01-16T03:58:19.549Z,1.96
2024-01-16T04:00:47.183Z,2.05
2024-01-16T04:03:14.743Z,2.08
2024-01-16T04:05:41.791Z,2.04
2024-01-16T04:08:08.941Z,2.14
2024-01-16T04:10:36.179Z,1.76
2024-01-16T04:13:04.054Z,1.91
2024-01-16T04:15:30.964Z,1.82
2024-01-16T04:17:58.199Z,1.73
2024-01-16T04:20:25.229Z,2.08
2024-01-16T04:22:52.145Z,2.10
2024-01-16T04:25:19.060Z,1.68
2024-01-16T04:27:45.913Z,1.29
2024-01-16T04:30:13.805Z,1.55
2024-01-16T04:32:40.852Z,1.60
2024-01-16T04:35:08.517Z,1.60
2024-01-16T04:37:35.426Z,1.83
2024-01-16T04:40:02.448Z,2.01
2024-01-16T04:42:29.338Z,1.90
2024-01-16T04:44:56.555Z,1.96
2024-01-16T04:47:23.669Z,1.75
2024-01-16T04:49:50.598Z,1.80
2024-01-16T04:52:17.503Z,1.91
2024-01-16T04:54:46.663Z,1.82
2024-01-16T04:57:13.696Z,1.94
2024-01-16T04:59:40.637Z,2.00
2024-01-16T05:02:07.653Z,1.89
2024-01-16T05:04:38.046Z,1.83
2024-01-16T05:07:05.210Z,1.90
2024-01-16T05:09:32.100Z,1.82
2024-01-16T05:11:58.946Z,1.75
2024-01-16T05:14:26.420Z,1.51
2024-01-16T05:16:53.765Z,1.56
2024-01-16T05:19:20.867Z,1.70
2024-01-16T05:21:47.812Z,1.27
2024-01-16T05:24:14.664Z,1.58
2024-01-16T05:26:41.653Z,1.44
2024-01-16T05:29:08.585Z,1.32
2024-01-16T05:31:44.258Z,1.47
2024-01-16T05:34:12.397Z,1.41
2024-01-16T05:36:39.537Z,1.60
2024-01-16T05:39:06.616Z,1.60
2024-01-16T05:41:35.072Z,1.54
2024-01-16T05:44:05.010Z,1.60
2024-01-16T05:46:35.204Z,1.61
2024-01-16T05:49:02.459Z,1.19
2024-01-16T05:51:30.490Z,1.38
2024-01-16T05:53:57.658Z,1.32
2024-01-16T05:56:24.652Z,1.28
2024-01-16T05:58:53.220Z,1.36
2024-01-16T06:01:20.250Z,1.09
2024-01-16T06:03:50.204Z,1.32
2024-01-16T06:06:17.800Z,1.08
2024-01-16T06:08:45.023Z,1.00
2024-01-16T06:11:14.361Z,1.23
2024-01-16T06:13:42.814Z,1.19
2024-01-16T06:16:09.688Z,1.40
2024-01-16T06:18:37.404Z,1.16
2024-01-16T06:21:04.907Z,0.69
2024-01-16T06:23:31.907Z,0.99
2024-01-16T06:25:58.924Z,0.94
2024-01-16T06:28:25.830Z,1.03
2024-01-16T06:30:52.837Z,0.93
2024-01-16T06:33:19.860Z,0.82
2024-01-16T06:35:46.808Z,0.97
2024-01-16T06:38:13.848Z,1.18
2024-01-16T06:40:41.261Z,1.02
2024-01-16T06:43:08.406Z,1.23
2024-01-16T06:45:35.408Z,1.00
2024-01-16T06:48:02.361Z,0.98
2024-01-16T06:50:31.102Z,1.08
2024-01-16T06:52:58.108Z,1.18
2024-01-16T06:55:25.232Z,1.15
2024-01-16T06:57:53.141Z,0.97
2024-01-16T07:00:21.885Z,1.04
2024-01-16T07:02:49.248Z,1.16
2024-01-16T07:05:16.424Z,1.17
2024-01-16T07:07:44.872Z,1.15
2024-01-16T07:10:19.094Z,1.12
2024-01-16T07:12:46.512Z,1.01
2024-01-16T07:15:14.452Z,0.80
2024-01-16T07:17:41.682Z,1.04
2024-01-16T07:20:09.347Z,1.04
2024-01-16T07:22:38.339Z,0.71
2024-01-16T07:25:05.562Z,0.95
2024-01-16T07:27:32.513Z,0.75
2024-01-16T07:29:59.353Z,0.54
2024-01-16T07:32:27.860Z,0.83
2024-01-16T07:34:55.701Z,1.01
2024-01-16T07:37:22.535Z,1.05
2024-01-16T07:39:49.560Z,1.10
2024-01-16T07:42:16.485Z,0.86
2024-01-16T07:44:43.699Z,0.87
2024-01-16T07:47:10.846Z,0.81
2024-01-16T07:49:37.942Z,0.75
2024-01-16T07:52:05.045Z,0.94
2024-01-16T07:54:32.351Z,0.80
2024-01-16T07:57:00.545Z,0.62
2024-01-16T07:59:29.465Z,0.76
2024-01-16T08:01:56.409Z,0.71
2024-01-16T08:04:23.361Z,0.63
2024-01-16T08:06:50.505Z,0.73
2024-01-16T08:09:18.486Z,0.86
2024-01-16T08:11:45.394Z,0.97
2024-01-16T08:14:12.334Z,1.16
2024-01-16T08:16:39.213Z,1.21
2024-01-16T08:19:06.376Z,1.13
2024-01-16T08:21:33.330Z,1.05
2024-01-16T08:24:00.552Z,0.83
2024-01-16T08:26:27.551Z,0.82
2024-01-16T08:28:54.382Z,0.92
2024-01-16T08:31:21.239Z,0.99
2024-01-16T08:33:50.751Z,1.11
2024-01-16T08:36:19.567Z,1.12
2024-01-16T08:38:47.654Z,1.25
2024-01-16T08:41:14.672Z,1.33
2024-01-16T08:43:41.509Z,1.31
2024-01-16T08:46:08.595Z,1.28
2024-01-16T08:48:35.647Z,1.29
2024-01-16T08:51:04.939Z,1.28
2024-01-16T08:53:32.197Z,1.49
2024-01-16T08:55:59.285Z,1.40
2024-01-16T08:58:26.223Z,1.36
2024-01-16T09:00:53.193Z,1.46
2024-01-16T09:03:20.046Z,1.40
2024-01-16T09:05:47.090Z,1.51
2024-01-16T09:08:14.334Z,1.19
2024-01-16T09:10:41.558Z,1.36
2024-01-16T09:13:08.516Z,1.41
2024-01-16T09:15:35.746Z,1.25
2024-01-16T09:18:02.943Z,1.35
2024-01-16T09:20:30.153Z,1.36
2024-01-16T09:22:57.077Z,1.49
2024-01-16T09:25:28.474Z,1.47
2024-01-16T09:27:55.561Z,1.31
2024-01-16T09:30:23.832Z,1.16
2024-01-16T09:32:50.954Z,1.45
2024-01-16T09:35:18.006Z,1.17
2024-01-16T09:37:44.974Z,1.36
2024-01-16T09:40:12.494Z,0.90
2024-01-16T09:42:39.349Z,0.92
2024-01-16T09:45:06.892Z,1.18
2024-01-16T09:47:35.497Z,1.46
2024-01-16T09:50:04.395Z,1.20
2024-01-16T09:52:31.467Z,1.26
2024-01-16T09:54:58.367Z,1.33
2024-01-16T09:57:29.541Z,1.38
2024-01-16T09:59:58.903Z,1.06
2024-01-16T10:02:26.037Z,1.39
2024-01-16T10:04:53.131Z,1.16
2024-01-16T10:07:26.850Z,1.36
2024-01-16T10:09:53.830Z,1.55
2024-01-16T10:12:20.715Z,1.66
2024-01-16T10:14:49.823Z,1.70
2024-01-16T10:17:19.028Z,1.72
2024-01-16T10:19:55.981Z,1.92
2024-01-16T10:22:26.719Z,1.58
2024-01-16T10:25:18.160Z,1.41
2024-01-16T10:27:45.401Z,1.46
2024-01-16T10:30:13.040Z,1.62
2024-01-16T10:32:43.055Z,1.72
2024-01-16T10:35:13.503Z,1.56
2024-01-16T10:37:54.840Z,1.76
2024-01-16T10:40:27.656Z,1.93
2024-01-16T10:43:02.053Z,1.69
2024-01-16T10:45:29.396Z,1.76
2024-01-16T10:48:08.386Z,1.88
2024-01-16T10:50:38.155Z,1.85
2024-01-16T10:53:09.748Z,2.07
2024-01-16T10:55:54.063Z,1.90
2024-01-16T10:58:24.776Z,1.99
2024-01-16T11:00:54.897Z,2.21
2024-01-16T11:03:50.377Z,1.93
2024-01-16T11:06:19.235Z,2.02
2024-01-16T11:08:51.067Z,2.07
2024-01-16T11:11:18.601Z,1.95
2024-01-16T11:13:47.861Z,1.99
2024-01-16T11:16:15.181Z,1.83
2024-01-16T11:18:42.175Z,1.73
2024-01-16T11:21:16.481Z,1.81
2024-01-16T11:23:47.207Z,1.86
2024-01-16T11:26:41.223Z,1.94
2024-01-16T11:29:30.316Z,1.95
2024-01-16T11:32:13.152Z,1.95
2024-01-16T11:34:45.612Z,1.96
2024-01-16T11:37:16.941Z,2.00
2024-01-16T11:39:43.885Z,2.08
2024-01-16T11:42:11.450Z,1.96
2024-01-16T11:44:51.185Z,1.79
2024-01-16T11:47:24.148Z,2.08
2024-01-16T11:50:30.520Z,2.11
2024-01-16T11:52:59.166Z,2.11
2024-01-16T11:55:37.648Z,2.25
2024-01-16T11:59:09.662Z,2.17
2024-01-16T12:01:37.426Z,2.20
2024-01-16T12:04:08.252Z,2.21
2024-01-16T12:06:37.298Z,2.21
2024-01-16T12:09:27.238Z,2.25
2024-01-16T12:12:04.202Z,2.21
2024-01-16T12:14:31.723Z,2.26
2024-01-16T12:17:15.623Z,2.56
2024-01-16T12:19:44.251Z,2.62
2024-01-16T12:22:14.743Z,2.52
2024-01-16T12:24:42.875Z,2.43
2024-01-16T12:27:11.020Z,2.46
2024-01-16T12:29:38.023Z,2.46
2024-01-16T12:32:13.063Z,2.44
2024-01-16T12:34:49.734Z,2.68
2024-01-16T12:37:17.843Z,2.73
2024-01-16T12:39:44.898Z,2.74
2024-01-16T12:42:13.178Z,2.73
2024-01-16T12:44:40.609Z,2.67
2024-01-16T12:47:07.645Z,2.64
2024-01-16T12:49:43.032Z,2.61
2024-01-16T12:52:26.646Z,2.64
2024-01-16T12:55:02.061Z,2.73
2024-01-16T12:57:29.480Z,2.75
2024-01-16T12:59:58.388Z,2.79
2024-01-16T13:02:26.779Z,2.90
2024-01-16T13:05:03.961Z,2.89
2024-01-16T13:07:34.310Z,2.86
2024-01-16T13:10:10.075Z,2.75
2024-01-16T13:12:37.622Z,2.76
2024-01-16T13:15:08.562Z,2.82
2024-01-16T13:17:36.235Z,2.89
2024-01-16T13:20:04.713Z,2.90
2024-01-16T13:22:42.918Z,2.89
2024-01-16T13:25:12.609Z,2.80
2024-01-16T13:27:39.469Z,2.97
2024-01-16T13:30:08.903Z,3.00
2024-01-16T13:32:38.427Z,2.98
2024-01-16T13:35:09.709Z,2.97
2024-01-16T13:37:39.489Z,3.07
2024-01-16T13:40:16.900Z,3.01
2024-01-16T13:42:44.046Z,3.08
2024-01-16T13:45:12.046Z,3.11
2024-01-16T13:47:41.787Z,2.92
2024-01-16T13:50:09.473Z,3.18
2024-01-16T13:52:37.243Z,3.14
2024-01-16T13:55:06.423Z,3.09
2024-01-16T13:57:36.185Z,3.17
2024-01-16T14:00:09.337Z,3.23
2024-01-16T14:02:38.407Z,3.25
2024-01-16T14:05:06.924Z,3.22
2024-01-16T14:07:33.802Z,3.21
2024-01-16T14:10:00.639Z,3.24
2024-01-16T14:12:27.974Z,3.24
2024-01-16T14:14:54.858Z,3.30
2024-01-16T14:17:21.777Z,3.33
2024-01-16T14:19:48.610Z,3.32
2024-01-16T14:22:16.880Z,3.26
2024-01-16T14:24:44.478Z,3.18
2024-01-16T14:27:11.714Z,3.19
2024-01-16T14:29:40.925Z,3.25
2024-01-16T14:32:07.938Z,3.22
2024-01-16T14:34:34.880Z,3.27
2024-01-16T14:37:01.768Z,3.29
2024-01-16T14:39:31.942Z,3.42
2024-01-16T14:42:03.415Z,3.35
2024-01-16T14:44:30.869Z,3.43
2024-01-16T14:46:58.139Z,3.32
2024-01-16T14:49:25.105Z,3.33
2024-01-16T14:51:52.215Z,3.42
2024-01-16T14:54:19.607Z,3.41
2024-01-16T14:56:46.984Z,3.42
2024-01-16T14:59:16.305Z,3.37
2024-01-16T15:01:45.470Z,3.37
2024-01-16T15:04:13.142Z,3.40
2024-01-16T15:06:40.495Z,3.43
2024-01-16T15:09:11.348Z,3.41
2024-01-16T15:11:38.310Z,3.19
2024-01-16T15:14:05.443Z,3.16
2024-01-16T15:16:32.658Z,3.29
2024-01-16T15:18:59.823Z,3.20
2024-01-16T15:21:26.904Z,3.41
2024-01-16T15:23:53.902Z,3.53
2024-01-16T15:26:22.369Z,3.56
2024-01-16T15:28:50.743Z,3.57
2024-01-16T15:31:18.672Z,3.58
2024-01-16T15:33:45.856Z,3.47
2024-01-16T15:36:12.989Z,3.70
2024-01-16T15:38:39.973Z,3.34
2024-01-16T15:41:07.135Z,3.09
2024-01-16T15:43:34.012Z,3.21
2024-01-16T15:46:01.246Z,3.17
2024-01-16T15:48:34.558Z,3.28
2024-01-16T15:51:02.197Z,3.11
2024-01-16T15:53:29.328Z,3.11
2024-01-16T15:55:56.320Z,3.22
2024-01-16T15:58:23.261Z,3.26
2024-01-16T16:00:50.306Z,3.06
2024-01-16T16:03:17.723Z,2.97
2024-01-16T16:05:44.770Z,3.18
2024-01-16T16:08:11.703Z,3.18
2024-01-16T16:10:40.149Z,3.08
2024-01-16T16:13:08.113Z,3.13
2024-01-16T16:15:36.064Z,3.09
2024-01-16T16:18:03.319Z,2.88
2024-01-16T16:20:30.755Z,2.81
2024-01-16T16:22:57.753Z,3.15
2024-01-16T16:25:24.654Z,3.06
2024-01-16T16:27:51.607Z,2.75
2024-01-16T16:30:19.010Z,2.88
2024-01-16T16:32:46.064Z,3.01
2024-01-16T16:35:13.598Z,2.96
2024-01-16T16:37:40.603Z,2.88
2024-01-16T16:40:11.118Z,3.17
2024-01-16T16:42:39.064Z,3.21
2024-01-16T16:45:07.536Z,3.29
2024-01-16T16:47:34.688Z,3.33
2024-01-16T16:50:01.664Z,3.14
2024-01-16T16:52:28.483Z,2.95
2024-01-16T16:54:55.409Z,2.69
2024-01-16T16:57:23.311Z,2.53
2024-01-16T16:59:51.531Z,2.70
2024-01-16T17:02:20.912Z,2.52
2024-01-16T17:04:48.026Z,2.66
2024-01-16T17:07:15.118Z,2.89
2024-01-16T17:09:45.626Z,2.78
2024-01-16T17:12:12.711Z,2.99
2024-01-16T17:14:39.669Z,3.07
2024-01-16T17:17:07.525Z,2.90
2024-01-16T17:19:34.562Z,2.89
2024-01-16T17:22:03.945Z,2.86
2024-01-16T17:24:31.067Z,2.83
2024-01-16T17:26:58.175Z,2.51
2024-01-16T17:29:25.182Z,2.68
2024-01-16T17:31:53.001Z,2.80
2024-01-16T17:34:19.940Z,2.71
2024-01-16T17:36:47.264Z,2.65
2024-01-16T17:39:16.412Z,2.72
2024-01-16T17:41:47.437Z,2.71
2024-01-16T17:44:14.335Z,2.53
2024-01-16T17:46:47.126Z,2.52
2024-01-16T17:49:15.205Z,2.55
2024-01-16T17:51:42.719Z,2.53
2024-01-16T17:54:09.590Z,2.44
2024-01-16T17:56:36.744Z,2.57
2024-01-16T17:59:05.092Z,2.50
2024-01-16T18:01:33.739Z,2.40
2024-01-16T18:04:01.380Z,2.41
2024-01-16T18:06:28.524Z,2.43
2024-01-16T18:08:58.169Z,2.32
2024-01-16T18:11:25.045Z,2.35
2024-01-16T18:13:53.195Z,2.34
2024-01-16T18:16:20.134Z,2.15
2024-01-16T18:18:47.393Z,2.17
2024-01-16T18:21:14.486Z,2.20
2024-01-16T18:23:42.414Z,2.22
2024-01-16T18:26:09.915Z,2.09
2024-01-16T18:28:37.020Z,2.18
2024-01-16T18:31:04.638Z,2.09
2024-01-16T18:33:31.933Z,2.00
2024-01-16T18:36:01.391Z,1.96
2024-01-16T18:38:29.212Z,1.98
2024-01-16T18:40:57.204Z,1.92
2024-01-16T18:43:24.429Z,1.95
2024-01-16T18:45:52.798Z,1.90
2024-01-16T18:48:20.272Z,1.84
2024-01-16T18:50:51.408Z,1.76
2024-01-16T18:53:18.544Z,1.83
2024-01-16T18:55:45.522Z,1.78
2024-01-16T18:58:14.033Z,1.81
2024-01-16T19:00:43.448Z,1.87
2024-01-16T19:03:10.552Z,1.85
2024-01-16T19:05:37.792Z,1.48
2024-01-16T19:08:05.351Z,1.28
2024-01-16T19:10:32.277Z,1.39
2024-01-16T19:12:59.220Z,1.52
2024-01-16T19:15:26.135Z,1.55
2024-01-16T19:17:54.565Z,1.40
2024-01-16T19:20:24.652Z,1.47
2024-01-16T19:22:53.465Z,1.51
2024-01-16T19:25:22.512Z,1.45
2024-01-16T19:27:50.613Z,1.45
2024-01-16T19:30:20.284Z,1.37
2024-01-16T19:32:49.301Z,1.39
2024-01-16T19:35:18.132Z,1.37
2024-01-16T19:37:45.713Z,1.28
2024-01-16T19:40:14.081Z,1.35
2024-01-16T19:42:41.901Z,1.40
2024-01-16T19:45:10.801Z,1.32
2024-01-16T19:47:40.850Z,1.18
2024-01-16T19:50:20.670Z,1.19
2024-01-16T19:52:51.363Z,1.29
2024-01-16T19:55:28.072Z,1.31
2024-01-16T19:57:57.693Z,0.87
2024-01-16T20:00:24.640Z,0.99
2024-01-16T20:02:51.616Z,0.69
2024-01-16T20:05:18.859Z,0.95
2024-01-16T20:07:47.127Z,0.99
2024-01-16T20:10:15.018Z,0.78
2024-01-16T20:12:46.357Z,0.91
2024-01-16T20:15:16.384Z,1.03
2024-01-16T20:17:44.243Z,1.04
2024-01-16T20:20:12.014Z,1.09
2024-01-16T20:22:40.083Z,1.07
2024-01-16T20:25:07.414Z,1.00
2024-01-16T20:27:35.155Z,0.89
2024-01-16T20:30:06.318Z,0.81
2024-01-16T20:32:34.674Z,0.88
2024-01-16T20:35:02.485Z,0.74
2024-01-16T20:37:30.636Z,0.69
2024-01-16T20:39:58.533Z,0.61
2024-01-16T20:42:25.490Z,0.62
2024-01-16T20:44:52.582Z,0.75
2024-01-16T20:47:19.564Z,0.74
2024-01-16T20:49:48.990Z,0.71
2024-01-16T20:52:16.798Z,0.77
2024-01-16T20:54:43.911Z,0.76
2024-01-16T20:57:10.843Z,0.80
2024-01-16T20:59:37.832Z,0.62
2024-01-16T21:02:04.894Z,0.64
2024-01-16T21:04:31.831Z,0.66
2024-01-16T21:07:04.509Z,0.47
2024-01-16T21:09:31.790Z,0.53
2024-01-16T21:12:01.345Z,0.55
2024-01-16T21:14:30.187Z,0.60
2024-01-16T21:16:57.104Z,0.38
2024-01-16T21:19:23.996Z,0.54
2024-01-16T21:21:55.660Z,0.58
2024-01-16T21:24:22.673Z,0.61
2024-01-16T21:26:50.621Z,0.58
2024-01-16T21:29:17.652Z,0.57
2024-01-16T21:31:54.044Z,0.51
2024-01-16T21:34:24.000Z,0.45
2024-01-16T21:36:52.884Z,0.36
2024-01-16T21:39:21.382Z,0.44
2024-01-16T21:41:48.610Z,0.37
2024-01-16T21:44:15.522Z,0.37
2024-01-16T21:46:43.420Z,0.17
2024-01-16T21:49:11.553Z,0.38
2024-01-16T21:51:38.872Z,0.25
2024-01-16T21:54:07.104Z,0.31
2024-01-16T21:56:34.997Z,0.25
2024-01-16T21:59:02.592Z,0.25
2024-01-16T22:01:30.592Z,0.07
2024-01-16T22:03:57.965Z,0.15
2024-01-16T22:06:26.009Z,0.21
2024-01-16T22:08:54.341Z,-0.04
2024-01-16T22:11:21.515Z,-0.07
2024-01-16T22:13:48.583Z,-0.33
2024-01-16T22:16:15.822Z,-0.21
2024-01-16T22:18:46.330Z,-0.04
2024-01-16T22:21:15.426Z,0.07
2024-01-16T22:23:42.832Z,0.10
2024-01-16T22:26:09.785Z,0.07
2024-01-16T22:28:38.709Z,0.03
2024-01-16T22:31:05.846Z,-0.06
2024-01-16T22:33:33.498Z,-0.05
2024-01-16T22:36:02.050Z,0.02
2024-01-16T22:38:29.049Z,-0.10
2024-01-16T22:40:57.285Z,-0.14
2024-01-16T22:43:24.179Z,-0.22
2024-01-16T22:45:52.665Z,-0.12
2024-01-16T22:48:19.899Z,-0.15
2024-01-16T22:50:50.723Z,-0.18
2024-01-16T22:53:18.474Z,-0.47
2024-01-16T22:55:47.209Z,-0.50
2024-01-16T22:58:15.680Z,-0.52
2024-01-16T23:00:43.497Z,-0.69
2024-01-16T23:03:12.870Z,-0.69
2024-01-16T23:05:46.098Z,-0.36
2024-01-16T23:08:13.050Z,-0.27
2024-01-16T23:10:40.229Z,-0.54
2024-01-16T23:13:07.134Z,-0.38
2024-01-16T23:15:33.946Z,-0.32
2024-01-16T23:18:00.970Z,-0.35
2024-01-16T23:20:31.827Z,-0.15
2024-01-16T23:22:58.848Z,-0.07
2024-01-16T23:25:27.222Z,-0.08
2024-01-16T23:27:54.237Z,-0.30
2024-01-16T23:30:21.111Z,-0.20
2024-01-16T23:32:48.096Z,-0.16
2024-01-16T23:35:16.160Z,-0.09
2024-01-16T23:37:45.157Z,-0.01
2024-01-16T23:40:13.701Z,0.00
2024-01-16T23:42:42.842Z,0.00
2024-01-16T23:45:20.433Z,-0.19
2024-01-16T23:47:54.880Z,0.02
2024-01-16T23:50:22.427Z,0.02
2024-01-16T23:52:52.405Z,0.02
2024-01-16T23:55:19.310Z,-0.08
2024-01-16T23:57:46.270Z,0.08
